sensor_id;sensor_type;location;lat;lon;timestamp;P1;durP1;ratioP1;P2;durP2;ratioP2
55076;SDS011;40971;44.702;11.030;2023-02-18T00:01:01;11.88;;;6.07;;
55076;SDS011;40971;44.702;11.030;2023-02-18T00:11:04;9.40;;;5.05;;
55076;SDS011;40971;44.702;11.030;2023-02-18T00:21:05;11.55;;;4.13;;
55076;SDS011;40971;44.702;11.030;2023-02-18T00:31:12;7.80;;;4.43;;
55076;SDS011;40971;44.702;11.030;2023-02-18T00:51:15;9.10;;;4.57;;
55076;SDS011;40971;44.702;11.030;2023-02-18T01:01:15;9.23;;;4.30;;
55076;SDS011;40971;44.702;11.030;2023-02-18T01:11:17;14.32;;;5.60;;
55076;SDS011;40971;44.702;11.030;2023-02-18T01:21:18;7.25;;;4.15;;
55076;SDS011;40971;44.702;11.030;2023-02-18T01:31:18;7.07;;;4.97;;
55076;SDS011;40971;44.702;11.030;2023-02-18T01:41:19;7.35;;;4.75;;
55076;SDS011;40971;44.702;11.030;2023-02-18T01:51:23;7.88;;;4.50;;
55076;SDS011;40971;44.702;11.030;2023-02-18T02:01:24;6.30;;;4.03;;
55076;SDS011;40971;44.702;11.030;2023-02-18T02:42:13;9.07;;;4.63;;
55076;SDS011;40971;44.702;11.030;2023-02-18T02:52:31;12.77;;;5.28;;
55076;SDS011;40971;44.702;11.030;2023-02-18T03:13:22;8.35;;;5.13;;
55076;SDS011;40971;44.702;11.030;2023-02-18T03:23:29;5.90;;;4.18;;
55076;SDS011;40971;44.702;11.030;2023-02-18T03:33:35;6.47;;;4.88;;
55076;SDS011;40971;44.702;11.030;2023-02-18T03:43:40;10.27;;;5.80;;
55076;SDS011;40971;44.702;11.030;2023-02-18T03:53:47;11.27;;;5.60;;
55076;SDS011;40971;44.702;11.030;2023-02-18T04:03:48;7.07;;;5.85;;
55076;SDS011;40971;44.702;11.030;2023-02-18T04:13:49;4.85;;;4.10;;
55076;SDS011;40971;44.702;11.030;2023-02-18T04:23:49;9.40;;;4.90;;
55076;SDS011;40971;44.702;11.030;2023-02-18T04:33:49;4.97;;;4.43;;
55076;SDS011;40971;44.702;11.030;2023-02-18T04:43:50;5.55;;;3.97;;
55076;SDS011;40971;44.702;11.030;2023-02-18T04:53:51;10.80;;;6.43;;
55076;SDS011;40971;44.702;11.030;2023-02-18T05:03:51;6.80;;;4.63;;
55076;SDS011;40971;44.702;11.030;2023-02-18T05:13:52;5.90;;;4.57;;
55076;SDS011;40971;44.702;11.030;2023-02-18T05:23:52;7.38;;;4.93;;
55076;SDS011;40971;44.702;11.030;2023-02-18T05:33:53;15.10;;;6.35;;
55076;SDS011;40971;44.702;11.030;2023-02-18T05:43:53;10.38;;;4.75;;
55076;SDS011;40971;44.702;11.030;2023-02-18T05:54:12;6.40;;;4.18;;
55076;SDS011;40971;44.702;11.030;2023-02-18T06:04:13;5.20;;;3.50;;
55076;SDS011;40971;44.702;11.030;2023-02-18T06:14:14;9.73;;;3.47;;
55076;SDS011;40971;44.702;11.030;2023-02-18T06:24:14;4.68;;;3.78;;
55076;SDS011;40971;44.702;11.030;2023-02-18T06:34:15;4.60;;;3.40;;
55076;SDS011;40971;44.702;11.030;2023-02-18T06:44:16;4.22;;;3.53;;
55076;SDS011;40971;44.702;11.030;2023-02-18T06:54:16;7.05;;;4.57;;
55076;SDS011;40971;44.702;11.030;2023-02-18T07:04:17;4.07;;;3.58;;
55076;SDS011;40971;44.702;11.030;2023-02-18T07:14:17;3.88;;;3.35;;
55076;SDS011;40971;44.702;11.030;2023-02-18T07:24:18;4.72;;;4.00;;
55076;SDS011;40971;44.702;11.030;2023-02-18T07:34:18;5.72;;;3.70;;
55076;SDS011;40971;44.702;11.030;2023-02-18T07:44:19;7.43;;;5.22;;
55076;SDS011;40971;44.702;11.030;2023-02-18T07:54:20;11.32;;;6.00;;
55076;SDS011;40971;44.702;11.030;2023-02-18T08:04:20;42.53;;;21.75;;
55076;SDS011;40971;44.702;11.030;2023-02-18T08:14:21;34.50;;;17.60;;
55076;SDS011;40971;44.702;11.030;2023-02-18T08:24:21;14.63;;;9.13;;
55076;SDS011;40971;44.702;11.030;2023-02-18T08:34:22;10.20;;;7.05;;
55076;SDS011;40971;44.702;11.030;2023-02-18T08:44:22;14.80;;;8.95;;
55076;SDS011;40971;44.702;11.030;2023-02-18T08:54:22;23.70;;;11.38;;
55076;SDS011;40971;44.702;11.030;2023-02-18T09:04:23;19.63;;;10.38;;
55076;SDS011;40971;44.702;11.030;2023-02-18T09:14:23;18.33;;;9.65;;
55076;SDS011;40971;44.702;11.030;2023-02-18T09:24:24;17.98;;;9.80;;
55076;SDS011;40971;44.702;11.030;2023-02-18T09:34:25;20.37;;;9.53;;
55076;SDS011;40971;44.702;11.030;2023-02-18T09:44:26;14.27;;;9.23;;
55076;SDS011;40971;44.702;11.030;2023-02-18T09:54:32;17.42;;;8.43;;
55076;SDS011;40971;44.702;11.030;2023-02-18T10:04:36;15.80;;;9.45;;
55076;SDS011;40971;44.702;11.030;2023-02-18T10:14:49;18.55;;;9.90;;
55076;SDS011;40971;44.702;11.030;2023-02-18T10:35:12;15.25;;;8.95;;
55076;SDS011;40971;44.702;11.030;2023-02-18T10:45:29;18.02;;;8.70;;
55076;SDS011;40971;44.702;11.030;2023-02-18T10:55:36;24.88;;;11.68;;
55076;SDS011;40971;44.702;11.030;2023-02-18T11:05:42;26.83;;;13.38;;
55076;SDS011;40971;44.702;11.030;2023-02-18T11:15:54;22.00;;;13.00;;
55076;SDS011;40971;44.702;11.030;2023-02-18T11:26:04;31.13;;;15.63;;
55076;SDS011;40971;44.702;11.030;2023-02-18T11:46:37;27.00;;;12.63;;
55076;SDS011;40971;44.702;11.030;2023-02-18T12:37:37;19.50;;;10.63;;
55076;SDS011;40971;44.702;11.030;2023-02-18T12:48:10;18.45;;;10.43;;
55076;SDS011;40971;44.702;11.030;2023-02-18T13:19:17;23.80;;;11.43;;
55076;SDS011;40971;44.702;11.030;2023-02-18T13:39:25;19.48;;;10.27;;
55076;SDS011;40971;44.702;11.030;2023-02-18T13:49:31;20.85;;;9.73;;
55076;SDS011;40971;44.702;11.030;2023-02-18T13:59:43;19.70;;;10.40;;
55076;SDS011;40971;44.702;11.030;2023-02-18T14:09:46;17.77;;;9.35;;
55076;SDS011;40971;44.702;11.030;2023-02-18T14:19:53;20.83;;;9.75;;
55076;SDS011;40971;44.702;11.030;2023-02-18T14:29:53;18.98;;;9.02;;
55076;SDS011;40971;44.702;11.030;2023-02-18T14:50:16;19.60;;;9.98;;
55076;SDS011;40971;44.702;11.030;2023-02-18T15:00:22;19.73;;;9.05;;
55076;SDS011;40971;44.702;11.030;2023-02-18T15:10:32;21.50;;;10.13;;
55076;SDS011;40971;44.702;11.030;2023-02-18T15:20:40;21.77;;;9.73;;
55076;SDS011;40971;44.702;11.030;2023-02-18T15:30:40;18.75;;;9.38;;
55076;SDS011;40971;44.702;11.030;2023-02-18T15:40:48;19.95;;;9.35;;
55076;SDS011;40971;44.702;11.030;2023-02-18T15:50:52;22.55;;;10.77;;
55076;SDS011;40971;44.702;11.030;2023-02-18T16:00:58;20.80;;;9.57;;
55076;SDS011;40971;44.702;11.030;2023-02-18T16:11:08;17.75;;;9.35;;
55076;SDS011;40971;44.702;11.030;2023-02-18T16:31:18;18.55;;;9.35;;
55076;SDS011;40971;44.702;11.030;2023-02-18T16:41:20;17.50;;;8.00;;
55076;SDS011;40971;44.702;11.030;2023-02-18T16:51:22;17.87;;;8.70;;
55076;SDS011;40971;44.702;11.030;2023-02-18T17:01:38;65.60;;;26.88;;
55076;SDS011;40971;44.702;11.030;2023-02-18T17:11:43;48.03;;;21.73;;
55076;SDS011;40971;44.702;11.030;2023-02-18T17:21:45;29.27;;;12.75;;
55076;SDS011;40971;44.702;11.030;2023-02-18T17:31:46;23.25;;;9.88;;
55076;SDS011;40971;44.702;11.030;2023-02-18T17:51:52;20.52;;;10.88;;
55076;SDS011;40971;44.702;11.030;2023-02-18T18:11:53;14.70;;;9.18;;
55076;SDS011;40971;44.702;11.030;2023-02-18T18:21:53;16.60;;;8.55;;
55076;SDS011;40971;44.702;11.030;2023-02-18T18:31:54;17.52;;;9.45;;
55076;SDS011;40971;44.702;11.030;2023-02-18T18:41:54;15.30;;;9.07;;
55076;SDS011;40971;44.702;11.030;2023-02-18T18:51:55;19.38;;;8.80;;
55076;SDS011;40971;44.702;11.030;2023-02-18T19:01:55;19.55;;;7.43;;
55076;SDS011;40971;44.702;11.030;2023-02-18T19:11:56;13.97;;;7.50;;
55076;SDS011;40971;44.702;11.030;2023-02-18T19:21:56;12.15;;;6.53;;
55076;SDS011;40971;44.702;11.030;2023-02-18T19:31:57;17.40;;;7.45;;
55076;SDS011;40971;44.702;11.030;2023-02-18T19:41:57;15.30;;;8.07;;
55076;SDS011;40971;44.702;11.030;2023-02-18T19:51:58;17.02;;;9.02;;
55076;SDS011;40971;44.702;11.030;2023-02-18T20:02:03;18.35;;;8.57;;
55076;SDS011;40971;44.702;11.030;2023-02-18T20:12:04;14.93;;;8.20;;
55076;SDS011;40971;44.702;11.030;2023-02-18T20:22:06;17.25;;;9.70;;
55076;SDS011;40971;44.702;11.030;2023-02-18T20:32:09;15.32;;;8.27;;
55076;SDS011;40971;44.702;11.030;2023-02-18T20:42:09;14.85;;;9.10;;
55076;SDS011;40971;44.702;11.030;2023-02-18T20:52:10;13.65;;;8.32;;
55076;SDS011;40971;44.702;11.030;2023-02-18T21:02:13;17.92;;;9.32;;
55076;SDS011;40971;44.702;11.030;2023-02-18T21:12:15;14.52;;;8.02;;
55076;SDS011;40971;44.702;11.030;2023-02-18T21:22:16;17.83;;;8.60;;
55076;SDS011;40971;44.702;11.030;2023-02-18T21:32:16;13.38;;;7.45;;
55076;SDS011;40971;44.702;11.030;2023-02-18T21:42:17;13.93;;;6.90;;
55076;SDS011;40971;44.702;11.030;2023-02-18T21:52:17;10.48;;;6.38;;
55076;SDS011;40971;44.702;11.030;2023-02-18T22:02:22;11.45;;;6.28;;
55076;SDS011;40971;44.702;11.030;2023-02-18T22:12:24;13.25;;;7.72;;
55076;SDS011;40971;44.702;11.030;2023-02-18T22:22:25;12.63;;;6.35;;
55076;SDS011;40971;44.702;11.030;2023-02-18T22:32:25;7.07;;;5.40;;
55076;SDS011;40971;44.702;11.030;2023-02-18T22:42:26;10.40;;;6.40;;
55076;SDS011;40971;44.702;11.030;2023-02-18T22:52:27;12.07;;;8.68;;
55076;SDS011;40971;44.702;11.030;2023-02-18T23:12:28;9.25;;;5.53;;
55076;SDS011;40971;44.702;11.030;2023-02-18T23:22:29;11.55;;;7.45;;
55076;SDS011;40971;44.702;11.030;2023-02-18T23:32:34;9.07;;;5.82;;
55076;SDS011;40971;44.702;11.030;2023-02-18T23:42:35;14.52;;;6.88;;
55076;SDS011;40971;44.702;11.030;2023-02-18T23:52:35;13.25;;;6.07;;
